createdAt,value
2018-05-25T00:00:11.691Z,84.59
2018-05-25T00:02:39.261Z,85.23
2018-05-25T00:05:06.721Z,84.68
2018-05-25T00:07:34.218Z,84.26
2018-05-25T00:10:01.716Z,84.60
2018-05-25T00:12:29.191Z,84.82
2018-05-25T00:14:56.716Z,85.26
2018-05-25T00:17:24.185Z,85.24
2018-05-25T00:19:51.676Z,85.79
2018-05-25T00:22:19.168Z,85.24
2018-05-25T00:24:46.715Z,86.11
2018-05-25T00:27:14.201Z,86.02
2018-05-25T00:29:41.667Z,85.97
2018-05-25T00:32:09.269Z,87.00
2018-05-25T00:34:36.749Z,86.51
2018-05-25T00:37:04.248Z,86.28
2018-05-25T00:39:31.730Z,86.49
2018-05-25T00:41:59.231Z,86.33
2018-05-25T00:44:26.697Z,86.15
2018-05-25T00:46:54.310Z,86.41
2018-05-25T00:49:21.784Z,85.95
2018-05-25T00:51:49.271Z,86.02
2018-05-25T00:54:16.769Z,85.81
2018-05-25T00:56:44.236Z,85.70
2018-05-25T00:59:11.727Z,85.28
2018-05-25T01:01:39.265Z,84.96
2018-05-25T01:10:02.711Z,83.48
2018-05-25T01:12:30.371Z,83.44
2018-05-25T01:14:57.932Z,83.29
2018-05-25T01:17:25.497Z,83.30
2018-05-25T01:19:53.061Z,83.20
2018-05-25T01:22:20.573Z,83.19
2018-05-25T01:24:48.117Z,83.51
2018-05-25T01:27:15.596Z,83.13
2018-05-25T01:29:43.079Z,83.14
2018-05-25T01:32:10.593Z,82.81
2018-05-25T01:34:38.125Z,82.79
2018-05-25T01:37:05.661Z,83.40
2018-05-25T01:39:33.121Z,83.45
2018-05-25T01:42:00.607Z,83.28
2018-05-25T01:44:28.086Z,82.84
2018-05-25T01:46:55.608Z,82.36
2018-05-25T01:49:23.366Z,82.44
2018-05-25T01:51:50.903Z,82.46
2018-05-25T01:54:18.385Z,82.55
2018-05-25T01:56:45.874Z,82.77
2018-05-25T01:59:13.383Z,82.90
2018-05-25T02:01:40.862Z,83.70
2018-05-25T02:04:08.350Z,83.70
2018-05-25T02:06:35.816Z,83.91
2018-05-25T02:09:03.308Z,83.85
2018-05-25T02:11:30.799Z,84.02
2018-05-25T02:13:58.260Z,84.31
2018-05-25T02:16:25.724Z,84.15
2018-05-25T02:18:53.228Z,84.23
2018-05-25T02:21:20.747Z,84.24
2018-05-25T02:23:48.234Z,83.93
2018-05-25T02:26:15.732Z,84.62
2018-05-25T02:28:43.241Z,84.90
2018-05-25T02:31:10.794Z,84.88
2018-05-25T02:33:38.334Z,84.48
2018-05-25T02:36:05.855Z,84.88
2018-05-25T02:38:33.401Z,84.81
2018-05-25T02:41:00.851Z,84.77
2018-05-25T02:43:28.321Z,84.88
2018-05-25T02:45:55.810Z,84.38
2018-05-25T02:48:23.308Z,84.43
2018-05-25T02:50:50.776Z,84.72
2018-05-25T02:53:18.338Z,84.96
2018-05-25T02:55:45.804Z,84.75
2018-05-25T02:58:13.401Z,84.79
2018-05-25T03:00:40.955Z,85.02
2018-05-25T03:03:08.468Z,85.07
2018-05-25T03:05:35.997Z,85.02
2018-05-25T03:08:03.459Z,85.48
2018-05-25T03:10:30.968Z,84.65
2018-05-25T03:12:58.476Z,84.81
2018-05-25T03:15:26.014Z,85.26
2018-05-25T03:17:53.496Z,86.00
2018-05-25T03:20:20.957Z,86.00
2018-05-25T03:22:48.442Z,86.10
2018-05-25T03:25:15.997Z,85.61
2018-05-25T03:27:43.473Z,85.38
2018-05-25T03:30:10.978Z,85.24
2018-05-25T03:32:38.439Z,85.35
2018-05-25T03:35:05.987Z,85.59
2018-05-25T03:37:33.497Z,85.89
2018-05-25T03:40:01.141Z,85.39
2018-05-25T03:42:28.604Z,85.77
2018-05-25T03:44:56.125Z,85.67
2018-05-25T03:47:23.614Z,85.58
2018-05-25T03:49:51.080Z,85.39
2018-05-25T03:52:18.572Z,85.35
2018-05-25T03:54:46.057Z,85.33
2018-05-25T03:57:13.556Z,85.35
2018-05-25T03:59:52.916Z,85.16
2018-05-25T04:02:20.400Z,85.06
2018-05-25T04:04:47.896Z,85.50
2018-05-25T04:10:06.143Z,85.59
2018-05-25T04:12:33.632Z,85.90
2018-05-25T04:15:01.097Z,85.71
2018-05-25T04:17:29.406Z,85.31
2018-05-25T04:19:56.870Z,85.05
2018-05-25T04:22:24.334Z,84.59
2018-05-25T04:24:51.812Z,84.44
2018-05-25T04:27:19.293Z,84.03
2018-05-25T04:29:46.836Z,83.96
2018-05-25T04:32:14.325Z,83.82
2018-05-25T04:34:41.851Z,84.05
2018-05-25T04:37:09.330Z,83.95
2018-05-25T04:39:36.833Z,83.27
2018-05-25T04:42:04.292Z,82.49
2018-05-25T04:44:31.861Z,82.78
2018-05-25T04:46:59.357Z,82.59
2018-05-25T04:49:26.903Z,82.33
2018-05-25T04:51:54.371Z,81.86
2018-05-25T04:54:21.845Z,82.11
2018-05-25T04:56:49.333Z,81.91
2018-05-25T04:59:16.846Z,81.63
2018-05-25T05:01:44.316Z,80.94
2018-05-25T05:04:11.783Z,80.85
2018-05-25T05:06:39.289Z,80.99
2018-05-25T05:09:06.776Z,79.88
2018-05-25T05:11:34.266Z,79.60
2018-05-25T05:14:02.054Z,79.65
2018-05-25T05:19:19.770Z,78.94
2018-05-25T05:21:47.237Z,78.41
2018-05-25T05:24:14.715Z,77.86
2018-05-25T05:26:42.197Z,77.74
2018-05-25T05:29:09.701Z,77.04
2018-05-25T05:31:37.354Z,77.06
2018-05-25T05:34:04.829Z,76.67
2018-05-25T05:36:32.320Z,77.14
2018-05-25T05:38:59.823Z,76.57
2018-05-25T05:41:27.304Z,76.30
2018-05-25T05:43:54.794Z,75.36
2018-05-25T05:52:03.111Z,74.79
2018-05-25T05:54:30.567Z,73.68
2018-05-25T05:56:58.069Z,73.10
2018-05-25T05:59:25.539Z,73.04
2018-05-25T06:01:53.049Z,71.75
2018-05-25T06:04:21.314Z,71.21
2018-05-25T06:09:40.316Z,69.89
2018-05-25T06:12:19.680Z,70.11
2018-05-25T06:14:47.169Z,68.77
2018-05-25T06:17:14.663Z,68.87
2018-05-25T06:22:33.071Z,68.08
2018-05-25T06:25:00.538Z,68.15
2018-05-25T06:27:28.024Z,69.56
2018-05-25T06:29:55.483Z,67.17
2018-05-25T06:32:23.721Z,66.66
2018-05-25T06:34:51.292Z,66.82
2018-05-25T06:37:18.797Z,67.32
2018-05-25T06:39:46.287Z,67.61
2018-05-25T06:42:13.768Z,67.20
2018-05-25T06:50:21.922Z,65.12
2018-05-25T06:52:49.408Z,63.33
2018-05-25T06:55:16.890Z,63.28
2018-05-25T06:57:44.374Z,63.41
2018-05-25T07:00:11.857Z,63.74
2018-05-25T07:02:39.369Z,63.64
2018-05-25T07:05:06.857Z,63.17
2018-05-25T07:07:34.352Z,62.12
2018-05-25T07:10:01.891Z,60.90
2018-05-25T07:12:29.480Z,61.38
2018-05-25T07:14:56.971Z,61.73
2018-05-25T07:17:24.498Z,61.69
2018-05-25T07:19:51.987Z,60.39
2018-05-25T07:22:19.470Z,59.65
2018-05-25T07:24:46.997Z,60.74
2018-05-25T07:27:14.525Z,60.08
2018-05-25T07:29:42.008Z,60.44
2018-05-25T07:32:09.493Z,60.14
2018-05-25T07:34:36.986Z,60.57
2018-05-25T07:37:04.649Z,59.36
2018-05-25T07:39:32.143Z,57.80
2018-05-25T07:41:59.615Z,58.14
2018-05-25T07:44:27.112Z,57.95
2018-05-25T07:46:54.607Z,58.60
2018-05-25T07:49:22.109Z,57.99
2018-05-25T07:51:49.595Z,57.30
2018-05-25T07:54:17.164Z,58.30
2018-05-25T07:56:44.620Z,57.74
2018-05-25T07:59:12.182Z,57.83
2018-05-25T08:01:39.743Z,55.96
2018-05-25T08:04:07.209Z,56.18
2018-05-25T08:12:16.141Z,55.78
2018-05-25T08:14:43.621Z,55.24
2018-05-25T08:17:11.093Z,55.33
2018-05-25T08:19:38.587Z,55.49
2018-05-25T08:22:06.064Z,55.28
2018-05-25T08:24:33.548Z,55.51
2018-05-25T08:27:01.030Z,55.06
2018-05-25T08:29:28.518Z,54.25
2018-05-25T08:31:56.091Z,56.85
2018-05-25T08:34:23.571Z,56.23
2018-05-25T08:36:51.035Z,56.00
2018-05-25T08:39:18.556Z,54.84
2018-05-25T08:41:46.084Z,53.20
2018-05-25T08:44:13.594Z,53.88
2018-05-25T08:46:41.102Z,53.87
2018-05-25T08:49:08.629Z,55.25
2018-05-25T08:51:36.067Z,52.53
2018-05-25T08:54:03.528Z,52.37
2018-05-25T08:56:31.055Z,52.17
2018-05-25T08:58:58.542Z,50.73
2018-05-25T09:01:26.023Z,51.95
2018-05-25T09:03:53.507Z,51.45
2018-05-25T09:06:26.155Z,51.93
2018-05-25T09:08:53.686Z,52.88
2018-05-25T09:11:21.262Z,52.07
2018-05-25T09:13:48.655Z,51.50
2018-05-25T09:16:16.120Z,51.79
2018-05-25T09:18:43.599Z,49.51
2018-05-25T09:21:11.055Z,50.02
2018-05-25T09:23:38.523Z,50.21
2018-05-25T09:26:05.996Z,52.73
2018-05-25T09:28:33.488Z,50.25
2018-05-25T09:33:51.321Z,49.18
2018-05-25T09:36:18.901Z,49.30
2018-05-25T09:38:46.454Z,49.19
2018-05-25T09:41:13.934Z,48.67
2018-05-25T09:43:41.394Z,49.20
2018-05-25T09:46:08.861Z,49.93
2018-05-25T09:48:36.324Z,50.09
2018-05-25T09:51:03.793Z,48.12
2018-05-25T09:53:31.316Z,48.29
2018-05-25T10:04:30.976Z,43.97
2018-05-25T10:06:59.248Z,44.45
2018-05-25T10:09:26.722Z,44.84
2018-05-25T10:14:44.584Z,43.77
2018-05-25T10:17:12.076Z,44.47
2018-05-25T10:19:39.585Z,44.62
2018-05-25T10:22:07.052Z,43.81
2018-05-25T10:24:34.507Z,45.58
2018-05-25T10:27:02.067Z,44.81
2018-05-25T10:29:29.553Z,46.68
2018-05-25T10:34:47.351Z,43.56
2018-05-25T10:37:14.816Z,42.84
2018-05-25T10:39:42.359Z,42.63
2018-05-25T10:45:00.333Z,41.86
2018-05-25T10:47:28.173Z,42.29
2018-05-25T10:49:55.632Z,40.72
2018-05-25T10:52:23.155Z,40.95
2018-05-25T10:54:50.632Z,38.52
2018-05-25T10:57:18.109Z,41.30
2018-05-25T10:59:45.717Z,40.19
2018-05-25T11:02:13.193Z,41.37
2018-05-25T11:04:40.682Z,39.76
2018-05-25T11:07:08.136Z,39.85
2018-05-25T11:09:35.634Z,39.56
2018-05-25T11:12:03.103Z,39.06
2018-05-25T11:14:30.602Z,40.95
2018-05-25T11:16:58.058Z,37.84
2018-05-25T11:19:25.549Z,38.22
2018-05-25T11:21:53.042Z,36.39
2018-05-25T11:24:20.510Z,37.15
2018-05-25T11:26:47.967Z,34.72
2018-05-25T11:29:15.476Z,28.62
2018-05-25T11:31:42.975Z,33.74
2018-05-25T11:34:10.458Z,34.12
2018-05-25T11:36:37.945Z,33.82
2018-05-25T11:39:06.206Z,35.52
2018-05-25T11:41:33.673Z,31.70
2018-05-25T11:44:01.160Z,34.10
2018-05-25T11:46:28.615Z,32.81
2018-05-25T11:48:56.117Z,31.52
2018-05-25T11:51:23.577Z,31.54
2018-05-25T11:53:51.066Z,26.94
2018-05-25T11:56:18.550Z,25.66
2018-05-25T11:58:46.073Z,23.60
2018-05-25T12:01:13.540Z,21.79
2018-05-25T12:03:41.110Z,22.64
2018-05-25T12:06:08.568Z,22.24
2018-05-25T12:08:36.032Z,21.11
2018-05-25T12:11:03.533Z,20.82
2018-05-25T12:13:30.997Z,18.02
2018-05-25T12:15:58.465Z,17.24
2018-05-25T12:18:25.966Z,16.77
2018-05-25T12:20:53.496Z,16.36
2018-05-25T12:23:20.967Z,18.70
2018-05-25T12:25:48.463Z,18.59
2018-05-25T12:28:15.920Z,16.04
2018-05-25T12:30:43.416Z,15.25
2018-05-25T12:33:10.878Z,17.11
2018-05-25T12:35:38.367Z,13.49
2018-05-25T12:38:05.835Z,11.78
2018-05-25T12:40:33.419Z,13.24
2018-05-25T12:43:00.874Z,12.11
2018-05-25T12:45:28.603Z,13.10
2018-05-25T12:47:56.078Z,14.24
2018-05-25T12:50:23.531Z,12.20
2018-05-25T12:52:51.011Z,11.44
2018-05-25T12:55:18.494Z,11.50
2018-05-25T12:57:45.982Z,11.38
2018-05-25T13:00:13.479Z,11.92
2018-05-25T13:02:40.945Z,10.96
2018-05-25T13:05:08.408Z,11.12
2018-05-25T13:07:35.873Z,11.12
2018-05-25T13:10:03.372Z,11.93
2018-05-25T13:12:30.900Z,12.58
2018-05-25T13:14:58.405Z,14.13
2018-05-25T13:17:25.870Z,12.00
2018-05-25T13:19:53.335Z,10.48
2018-05-25T13:22:20.782Z,10.91
2018-05-25T13:24:48.251Z,12.37
2018-05-25T13:27:15.715Z,11.77
2018-05-25T13:29:43.171Z,11.49
2018-05-25T13:32:10.628Z,10.42
2018-05-25T13:34:38.091Z,9.49
2018-05-25T13:37:05.634Z,9.61
2018-05-25T13:39:33.353Z,11.04
2018-05-25T13:42:00.833Z,11.09
2018-05-25T13:44:28.815Z,12.29
2018-05-25T13:46:56.284Z,11.94
2018-05-25T13:49:23.846Z,12.10
2018-05-25T13:51:51.290Z,12.26
2018-05-25T13:54:18.923Z,11.66
2018-05-25T13:56:46.388Z,11.54
2018-05-25T13:59:13.862Z,12.26
2018-05-25T14:01:41.333Z,11.85
2018-05-25T14:04:08.808Z,12.32
2018-05-25T14:06:37.084Z,12.07
2018-05-25T14:09:07.312Z,13.42
2018-05-25T14:11:34.789Z,12.50
2018-05-25T14:14:02.267Z,12.41
2018-05-25T14:16:29.801Z,12.02
2018-05-25T14:18:57.254Z,12.76
2018-05-25T14:21:24.739Z,11.00
2018-05-25T14:23:52.210Z,12.90
2018-05-25T14:26:19.708Z,10.53
2018-05-25T14:28:47.285Z,11.39
2018-05-25T14:31:14.792Z,12.58
2018-05-25T14:33:42.252Z,11.94
2018-05-25T14:36:09.734Z,9.25
2018-05-25T14:38:37.286Z,9.43
2018-05-25T14:41:04.798Z,10.46
2018-05-25T14:43:32.287Z,9.82
2018-05-25T14:45:59.794Z,10.63
2018-05-25T14:48:27.244Z,10.76
2018-05-25T14:50:54.760Z,11.17
2018-05-25T14:53:22.259Z,10.86
2018-05-25T14:55:49.744Z,10.57
2018-05-25T14:58:17.202Z,10.73
2018-05-25T15:00:44.684Z,10.80
2018-05-25T15:03:12.163Z,13.00
2018-05-25T15:05:39.649Z,12.87
2018-05-25T15:08:07.124Z,13.66
2018-05-25T15:10:34.591Z,14.52
2018-05-25T15:13:02.071Z,16.44
2018-05-25T15:15:29.548Z,16.26
2018-05-25T15:17:57.013Z,14.42
2018-05-25T15:20:24.476Z,16.19
2018-05-25T15:22:51.981Z,16.44
2018-05-25T15:25:19.478Z,16.00
2018-05-25T15:27:46.935Z,14.41
2018-05-25T15:30:14.439Z,14.00
2018-05-25T15:32:42.061Z,12.08
2018-05-25T15:35:09.387Z,11.68
2018-05-25T15:37:36.843Z,12.53
2018-05-25T15:40:04.378Z,13.24
2018-05-25T15:42:31.839Z,11.94
2018-05-25T15:44:59.294Z,14.43
2018-05-25T15:47:26.772Z,14.70
2018-05-25T15:49:54.235Z,14.02
2018-05-25T15:52:21.699Z,15.37
2018-05-25T15:54:49.183Z,14.51
2018-05-25T15:57:16.632Z,14.60
2018-05-25T15:59:44.120Z,13.58
2018-05-25T16:02:11.607Z,14.40
2018-05-25T16:04:39.197Z,15.10
2018-05-25T16:07:06.728Z,15.57
2018-05-25T16:09:34.256Z,14.69
2018-05-25T16:12:01.743Z,14.90
2018-05-25T16:14:29.215Z,16.63
2018-05-25T16:16:56.711Z,15.53
2018-05-25T16:19:24.230Z,15.67
2018-05-25T16:21:51.782Z,15.55
2018-05-25T16:24:19.235Z,14.74
2018-05-25T16:26:46.750Z,15.77
2018-05-25T16:29:14.278Z,16.56
2018-05-25T16:31:41.776Z,16.02
2018-05-25T16:34:09.262Z,15.06
2018-05-25T16:36:36.751Z,15.33
2018-05-25T16:39:04.223Z,14.29
2018-05-25T16:41:31.712Z,14.10
2018-05-25T16:43:59.302Z,13.52
2018-05-25T16:46:26.766Z,13.99
2018-05-25T16:48:54.255Z,13.81
2018-05-25T16:51:21.706Z,13.18
2018-05-25T16:53:49.856Z,12.76
2018-05-25T16:56:17.318Z,13.42
2018-05-25T16:58:44.818Z,14.11
2018-05-25T17:01:12.276Z,15.05
2018-05-25T17:03:39.797Z,14.54
2018-05-25T17:06:07.303Z,14.86
2018-05-25T17:08:34.761Z,14.34
2018-05-25T17:11:02.270Z,15.92
2018-05-25T17:13:29.823Z,17.01
2018-05-25T17:15:58.420Z,17.56
2018-05-25T17:18:25.888Z,18.43
2018-05-25T17:20:53.346Z,20.67
2018-05-25T17:23:20.798Z,19.94
2018-05-25T17:25:48.274Z,21.03
2018-05-25T17:28:15.799Z,20.83
2018-05-25T17:30:43.272Z,20.32
2018-05-25T17:33:10.745Z,19.92
2018-05-25T17:35:38.243Z,19.34
2018-05-25T17:38:05.723Z,19.93
2018-05-25T17:40:33.180Z,20.05
2018-05-25T17:43:00.658Z,21.77
2018-05-25T17:45:28.120Z,24.32
2018-05-25T17:47:55.609Z,22.64
2018-05-25T17:50:23.097Z,22.90
2018-05-25T17:52:50.558Z,23.53
2018-05-25T17:55:18.047Z,24.59
2018-05-25T17:57:45.508Z,26.74
2018-05-25T18:00:12.986Z,29.10
2018-05-25T18:02:40.451Z,31.34
2018-05-25T18:05:07.945Z,33.34
2018-05-25T18:07:35.470Z,35.00
2018-05-25T18:10:02.985Z,36.32
2018-05-25T18:12:30.453Z,38.04
2018-05-25T18:14:57.920Z,39.19
2018-05-25T18:17:25.437Z,39.60
2018-05-25T18:19:52.932Z,40.73
2018-05-25T18:22:20.421Z,41.65
2018-05-25T18:24:47.880Z,43.00
2018-05-25T18:27:15.461Z,43.33
2018-05-25T18:29:42.905Z,44.46
2018-05-25T18:32:10.356Z,44.63
2018-05-25T18:34:37.817Z,44.72
2018-05-25T18:37:05.298Z,46.10
2018-05-25T18:39:32.760Z,46.32
2018-05-25T18:42:00.959Z,46.91
2018-05-25T18:44:28.443Z,47.74
2018-05-25T18:46:55.898Z,47.11
2018-05-25T18:49:23.367Z,47.62
2018-05-25T18:51:50.916Z,47.76
2018-05-25T18:54:30.245Z,48.18
2018-05-25T18:56:57.711Z,48.57
2018-05-25T18:59:25.231Z,48.40
2018-05-25T19:01:52.677Z,49.93
2018-05-25T19:04:20.144Z,50.02
2018-05-25T19:06:52.653Z,50.06
2018-05-25T19:09:20.145Z,50.67
2018-05-25T19:11:47.609Z,50.44
2018-05-25T19:14:15.096Z,50.62
2018-05-25T19:16:42.577Z,51.24
2018-05-25T19:19:10.118Z,50.61
2018-05-25T19:21:37.741Z,51.16
2018-05-25T19:24:05.232Z,51.07
2018-05-25T19:26:32.767Z,51.79
2018-05-25T19:29:00.237Z,51.03
2018-05-25T19:31:27.703Z,51.25
2018-05-25T19:33:55.172Z,51.51
2018-05-25T19:36:22.618Z,51.97
2018-05-25T19:38:50.167Z,52.40
2018-05-25T19:41:17.628Z,52.23
2018-05-25T19:43:45.090Z,52.42
2018-05-25T19:46:12.667Z,53.10
2018-05-25T19:48:40.115Z,53.68
2018-05-25T19:51:07.579Z,53.73
2018-05-25T19:53:35.072Z,53.83
2018-05-25T19:56:02.634Z,53.75
2018-05-25T19:58:30.127Z,54.29
2018-05-25T20:00:57.747Z,54.02
2018-05-25T20:03:25.233Z,54.34
2018-05-25T20:05:52.724Z,54.82
2018-05-25T20:08:20.184Z,54.63
2018-05-25T20:10:47.644Z,55.11
2018-05-25T20:13:15.223Z,55.12
2018-05-25T20:15:42.726Z,55.59
2018-05-25T20:18:10.208Z,55.52
2018-05-25T20:20:37.729Z,55.72
2018-05-25T20:23:05.239Z,56.25
2018-05-25T20:25:32.707Z,56.31
2018-05-25T20:28:00.174Z,56.88
2018-05-25T20:30:27.725Z,57.21
2018-05-25T20:32:55.224Z,58.19
2018-05-25T20:35:22.674Z,58.18
2018-05-25T20:37:50.141Z,58.71
2018-05-25T20:40:17.613Z,58.93
2018-05-25T20:42:45.107Z,59.47
2018-05-25T20:45:12.605Z,59.67
2018-05-25T20:47:40.105Z,60.44
2018-05-25T20:50:07.600Z,60.67
2018-05-25T20:52:35.095Z,60.97
2018-05-25T20:55:02.570Z,61.28
2018-05-25T20:57:30.043Z,61.67
2018-05-25T20:59:57.535Z,61.57
2018-05-25T21:02:25.079Z,61.85
2018-05-25T21:04:52.635Z,61.94
2018-05-25T21:07:20.287Z,62.53
2018-05-25T21:09:47.776Z,62.43
2018-05-25T21:12:15.315Z,62.40
2018-05-25T21:14:42.872Z,63.19
2018-05-25T21:17:10.346Z,62.96
2018-05-25T21:19:37.824Z,63.23
2018-05-25T21:22:05.304Z,63.63
2018-05-25T21:24:32.746Z,64.06
2018-05-25T21:27:00.212Z,64.46
2018-05-25T21:29:27.722Z,64.61
2018-05-25T21:31:55.255Z,64.43
2018-05-25T21:34:22.724Z,64.50
2018-05-25T21:36:50.293Z,64.05
2018-05-25T21:39:17.827Z,64.06
2018-05-25T21:41:46.134Z,64.37
2018-05-25T21:44:13.640Z,64.52
2018-05-25T21:46:41.136Z,64.41
2018-05-25T21:49:08.604Z,64.53
2018-05-25T21:51:36.064Z,64.64
2018-05-25T21:54:03.551Z,65.10
2018-05-25T21:56:31.026Z,65.42
2018-05-25T21:58:58.717Z,65.42
2018-05-25T22:01:27.896Z,65.64
2018-05-25T22:03:57.222Z,65.99
2018-05-25T22:06:28.492Z,66.40
2018-05-25T22:08:57.472Z,66.66
2018-05-25T22:11:24.943Z,66.88
2018-05-25T22:13:52.421Z,67.10
2018-05-25T22:16:20.704Z,67.26
2018-05-25T22:18:48.201Z,67.10
2018-05-25T22:21:15.693Z,67.51
2018-05-25T22:23:43.179Z,67.56
2018-05-25T22:26:10.656Z,68.21
2018-05-25T22:28:38.127Z,68.22
2018-05-25T22:31:05.611Z,68.24
2018-05-25T22:33:33.212Z,68.32
2018-05-25T22:36:00.684Z,68.27
2018-05-25T22:38:28.164Z,68.30
2018-05-25T22:40:55.714Z,68.28
2018-05-25T22:43:35.093Z,68.57
2018-05-25T22:46:16.929Z,68.42
2018-05-25T22:48:57.300Z,68.45
2018-05-25T22:51:36.885Z,68.57
2018-05-25T22:54:09.316Z,68.53
2018-05-25T22:56:36.798Z,68.77
2018-05-25T22:59:04.310Z,68.93
2018-05-25T23:01:31.814Z,68.89
2018-05-25T23:03:59.264Z,69.32
2018-05-25T23:06:26.744Z,70.04
2018-05-25T23:08:54.218Z,70.30
2018-05-25T23:11:21.713Z,70.73
2018-05-25T23:13:49.170Z,70.86
2018-05-25T23:16:16.631Z,71.31
2018-05-25T23:18:44.109Z,71.21
2018-05-25T23:21:11.608Z,71.21
2018-05-25T23:23:39.083Z,71.46
2018-05-25T23:26:06.535Z,71.68
2018-05-25T23:28:34.029Z,71.84
2018-05-25T23:31:01.496Z,71.89
2018-05-25T23:33:28.984Z,71.95
2018-05-25T23:35:56.438Z,71.99
2018-05-25T23:38:23.936Z,72.22
2018-05-25T23:40:51.431Z,72.06
2018-05-25T23:43:18.964Z,72.46
2018-05-25T23:45:46.427Z,72.53
2018-05-25T23:48:13.908Z,72.72
2018-05-25T23:50:41.413Z,73.15
2018-05-25T23:53:08.910Z,73.56
2018-05-25T23:55:36.378Z,73.14
2018-05-25T23:58:03.906Z,73.31
